createdAt,value
2018-05-29T00:02:26.419Z,9.75
2018-05-29T00:04:54.691Z,9.80
2018-05-29T00:07:22.971Z,9.20
2018-05-29T00:09:51.273Z,9.60
2018-05-29T00:12:18.807Z,9.52
2018-05-29T00:14:46.318Z,9.65
2018-05-29T00:17:13.854Z,9.77
2018-05-29T00:19:42.125Z,9.27
2018-05-29T00:22:10.409Z,9.57
2018-05-29T00:24:38.726Z,9.70
2018-05-29T00:27:06.259Z,10.07
2018-05-29T00:29:34.553Z,9.80
2018-05-29T00:32:02.105Z,9.40
2018-05-29T00:34:30.409Z,10.32
2018-05-29T00:36:58.085Z,10.20
2018-05-29T00:39:25.640Z,10.32
2018-05-29T00:41:53.170Z,10.77
2018-05-29T00:44:21.462Z,10.45
2018-05-29T00:46:49.773Z,10.00
2018-05-29T00:49:17.333Z,9.80
2018-05-29T00:51:44.868Z,10.13
2018-05-29T00:54:13.187Z,10.50
2018-05-29T00:56:40.706Z,10.20
2018-05-29T00:59:08.387Z,11.32
2018-05-29T01:01:36.694Z,11.10
2018-05-29T01:04:04.214Z,10.30
2018-05-29T01:06:31.757Z,10.65
2018-05-29T01:08:59.305Z,11.57
2018-05-29T01:11:26.826Z,12.05
2018-05-29T01:13:55.105Z,12.00
2018-05-29T01:16:23.430Z,11.70
2018-05-29T01:18:50.949Z,12.23
2018-05-29T01:21:19.234Z,13.10
2018-05-29T01:23:47.541Z,12.82
2018-05-29T01:26:15.063Z,13.55
2018-05-29T01:28:43.449Z,13.93
2018-05-29T01:31:11.821Z,13.45
2018-05-29T01:33:39.460Z,13.70
2018-05-29T01:36:06.984Z,12.88
2018-05-29T01:38:35.299Z,13.60
2018-05-29T01:41:02.854Z,12.77
2018-05-29T01:43:30.393Z,13.77
2018-05-29T01:45:58.711Z,14.52
2018-05-29T01:48:26.230Z,14.30
2018-05-29T01:50:54.599Z,13.93
2018-05-29T01:53:22.105Z,15.10
2018-05-29T01:55:49.623Z,14.98
2018-05-29T01:58:17.160Z,13.73
2018-05-29T02:00:44.782Z,14.35
2018-05-29T02:03:13.084Z,13.62
2018-05-29T02:05:40.609Z,13.93
2018-05-29T02:08:09.030Z,13.00
2018-05-29T02:10:36.625Z,13.30
2018-05-29T02:13:04.152Z,12.88
2018-05-29T02:15:31.702Z,14.48
2018-05-29T02:17:59.993Z,14.05
2018-05-29T02:20:27.512Z,14.25
2018-05-29T02:22:55.062Z,14.02
2018-05-29T02:25:22.578Z,13.55
2018-05-29T02:27:50.902Z,14.05
2018-05-29T02:30:19.206Z,14.05
2018-05-29T02:32:46.719Z,14.57
2018-05-29T02:35:14.248Z,14.57
2018-05-29T02:37:42.571Z,14.05
2018-05-29T02:40:10.115Z,15.45
2018-05-29T02:42:37.669Z,16.25
2018-05-29T02:45:05.992Z,16.05
2018-05-29T02:47:34.281Z,15.57
2018-05-29T02:50:01.802Z,16.33
2018-05-29T02:52:30.118Z,16.17
2018-05-29T02:54:57.656Z,17.20
2018-05-29T02:57:25.182Z,17.23
2018-05-29T02:59:52.800Z,17.25
2018-05-29T03:02:20.466Z,19.20
2018-05-29T03:04:48.001Z,18.15
2018-05-29T03:07:15.558Z,17.50
2018-05-29T03:09:43.086Z,16.70
2018-05-29T03:12:10.602Z,17.55
2018-05-29T03:14:38.910Z,17.77
2018-05-29T03:17:06.445Z,17.85
2018-05-29T03:19:34.736Z,17.95
2018-05-29T03:22:02.298Z,17.40
2018-05-29T03:24:30.590Z,17.85
2018-05-29T03:26:58.109Z,19.48
2018-05-29T03:29:25.654Z,18.02
2018-05-29T03:31:53.169Z,18.80
2018-05-29T03:34:21.447Z,18.05
2018-05-29T03:36:49.025Z,18.60
2018-05-29T03:39:16.549Z,18.00
2018-05-29T03:41:44.069Z,18.05
2018-05-29T03:44:11.606Z,17.83
2018-05-29T03:46:39.898Z,18.73
2018-05-29T03:49:07.413Z,17.98
2018-05-29T03:51:34.954Z,17.62
2018-05-29T03:54:02.514Z,17.98
2018-05-29T03:56:30.060Z,18.20
2018-05-29T03:58:57.602Z,18.15
2018-05-29T04:01:25.137Z,18.65
2018-05-29T04:03:53.589Z,18.23
2018-05-29T04:06:21.149Z,18.70
2018-05-29T04:08:48.684Z,18.12
2018-05-29T04:11:16.990Z,20.42
2018-05-29T04:13:44.533Z,19.23
2018-05-29T04:16:12.048Z,18.77
2018-05-29T04:18:39.574Z,19.65
2018-05-29T04:21:07.115Z,18.55
2018-05-29T04:23:35.433Z,17.87
2018-05-29T04:26:02.951Z,18.30
2018-05-29T04:28:31.278Z,17.17
2018-05-29T04:30:58.801Z,17.17
2018-05-29T04:33:26.323Z,17.80
2018-05-29T04:35:53.860Z,19.85
2018-05-29T04:38:21.385Z,19.02
2018-05-29T04:40:48.910Z,18.92
2018-05-29T04:43:17.233Z,19.27
2018-05-29T04:45:44.749Z,19.40
2018-05-29T04:48:12.322Z,18.98
2018-05-29T04:50:39.889Z,18.83
2018-05-29T04:53:07.408Z,18.65
2018-05-29T04:55:35.700Z,18.25
2018-05-29T04:58:04.112Z,19.08
2018-05-29T05:00:31.633Z,19.98
2018-05-29T05:02:59.920Z,18.92
2018-05-29T05:05:28.526Z,19.33
2018-05-29T05:07:56.056Z,18.08
2018-05-29T05:10:23.579Z,19.23
2018-05-29T05:12:51.138Z,19.40
2018-05-29T05:15:18.661Z,18.50
2018-05-29T05:17:46.957Z,18.70
2018-05-29T05:20:15.298Z,18.65
2018-05-29T05:22:42.831Z,19.12
2018-05-29T05:25:10.394Z,18.40
2018-05-29T05:27:37.943Z,17.67
2018-05-29T05:30:05.515Z,18.25
2018-05-29T05:32:33.778Z,18.62
2018-05-29T05:35:01.336Z,18.15
2018-05-29T05:37:29.626Z,17.73
2018-05-29T05:39:57.157Z,18.37
2018-05-29T05:42:24.777Z,16.85
2018-05-29T05:44:52.301Z,16.87
2018-05-29T05:47:20.581Z,16.58
2018-05-29T05:49:48.909Z,16.17
2018-05-29T05:52:16.441Z,17.20
2018-05-29T05:54:44.725Z,16.30
2018-05-29T05:57:13.050Z,16.00
2018-05-29T05:59:40.593Z,15.38
2018-05-29T06:02:08.118Z,15.30
2018-05-29T06:04:35.665Z,15.40
2018-05-29T06:07:03.345Z,15.45
2018-05-29T06:09:31.642Z,16.15
2018-05-29T06:11:59.957Z,14.52
2018-05-29T06:14:27.478Z,14.57
2018-05-29T06:16:55.009Z,14.77
2018-05-29T06:19:22.559Z,14.65
2018-05-29T06:21:50.798Z,14.77
2018-05-29T06:24:19.260Z,14.45
2018-05-29T06:26:46.802Z,14.82
2018-05-29T06:29:14.329Z,14.73
2018-05-29T06:31:42.621Z,14.68
2018-05-29T06:34:10.173Z,14.68
2018-05-29T06:36:37.702Z,15.35
2018-05-29T06:39:06.133Z,14.25
2018-05-29T06:41:33.682Z,14.10
2018-05-29T06:44:01.231Z,13.20
2018-05-29T06:46:29.527Z,14.23
2018-05-29T06:48:57.066Z,12.90
2018-05-29T06:51:24.627Z,14.18
2018-05-29T06:53:53.669Z,13.40
2018-05-29T06:56:21.205Z,13.82
2018-05-29T06:58:49.505Z,14.13
2018-05-29T07:01:17.074Z,12.90
2018-05-29T07:03:44.619Z,13.05
2018-05-29T07:06:12.897Z,12.85
2018-05-29T07:08:41.274Z,12.98
2018-05-29T07:11:09.597Z,13.57
2018-05-29T07:13:37.124Z,12.85
2018-05-29T07:16:05.423Z,12.77
2018-05-29T07:18:33.742Z,11.20
2018-05-29T07:21:01.265Z,11.50
2018-05-29T07:23:29.561Z,12.37
2018-05-29T07:25:57.152Z,13.80
2018-05-29T07:28:24.681Z,13.30
2018-05-29T07:30:52.209Z,10.82
2018-05-29T07:33:21.285Z,11.15
2018-05-29T07:35:48.956Z,10.95
2018-05-29T07:38:16.502Z,12.35
2018-05-29T07:40:44.061Z,10.75
2018-05-29T07:43:11.585Z,10.90
2018-05-29T07:45:39.882Z,10.73
2018-05-29T07:48:08.201Z,10.70
2018-05-29T07:50:35.730Z,11.10
2018-05-29T07:53:04.009Z,9.32
2018-05-29T07:55:31.569Z,10.30
2018-05-29T07:57:59.094Z,9.07
2018-05-29T08:00:26.743Z,9.73
2018-05-29T08:02:54.377Z,9.88
2018-05-29T08:05:21.909Z,9.65
2018-05-29T08:07:50.570Z,9.90
2018-05-29T08:10:18.178Z,10.65
2018-05-29T08:12:46.458Z,9.55
2018-05-29T08:15:14.750Z,9.90
2018-05-29T08:17:43.062Z,9.20
2018-05-29T08:20:10.586Z,10.27
2018-05-29T08:22:38.877Z,10.65
2018-05-29T08:25:07.189Z,9.60
2018-05-29T08:27:34.708Z,8.65
2018-05-29T08:30:02.994Z,8.57
2018-05-29T08:32:31.327Z,9.35
2018-05-29T08:34:58.877Z,8.98
2018-05-29T08:37:26.401Z,9.18
2018-05-29T08:39:54.718Z,8.70
2018-05-29T08:42:22.326Z,9.90
2018-05-29T08:44:50.529Z,8.80
2018-05-29T08:47:18.837Z,8.77
2018-05-29T08:49:46.373Z,8.10
2018-05-29T08:52:14.657Z,8.45
2018-05-29T08:54:42.961Z,8.75
2018-05-29T08:57:10.488Z,7.70
2018-05-29T08:59:38.011Z,7.93
2018-05-29T09:02:05.554Z,7.45
2018-05-29T09:04:33.096Z,7.62
2018-05-29T09:07:00.602Z,7.62
2018-05-29T09:09:28.147Z,6.87
2018-05-29T09:11:55.862Z,7.03
2018-05-29T09:14:23.406Z,7.00
2018-05-29T09:16:50.954Z,6.62
2018-05-29T09:19:18.521Z,7.07
2018-05-29T09:21:46.505Z,7.03
2018-05-29T09:24:14.060Z,6.10
2018-05-29T09:26:41.574Z,6.50
2018-05-29T09:29:09.097Z,5.90
2018-05-29T09:31:36.636Z,6.40
2018-05-29T09:34:04.158Z,6.43
2018-05-29T09:36:31.703Z,6.78
2018-05-29T09:38:59.233Z,6.60
2018-05-29T09:41:27.559Z,6.05
2018-05-29T09:43:55.101Z,5.62
2018-05-29T09:46:22.662Z,5.82
2018-05-29T09:48:50.166Z,5.57
2018-05-29T09:51:18.465Z,5.40
2018-05-29T09:53:46.776Z,5.55
2018-05-29T09:56:15.062Z,6.18
2018-05-29T09:58:42.574Z,5.30
2018-05-29T10:01:10.171Z,4.78
2018-05-29T10:03:37.653Z,4.82
2018-05-29T10:06:05.177Z,4.40
2018-05-29T10:08:32.725Z,5.28
2018-05-29T10:11:01.006Z,5.37
2018-05-29T10:13:28.626Z,5.10
2018-05-29T10:15:56.187Z,5.80
2018-05-29T10:18:23.712Z,5.10
2018-05-29T10:20:51.222Z,5.07
2018-05-29T10:23:18.812Z,4.35
2018-05-29T10:25:46.309Z,4.87
2018-05-29T10:28:13.923Z,5.30
2018-05-29T10:30:41.481Z,5.07
2018-05-29T10:33:09.010Z,4.65
2018-05-29T10:35:37.294Z,4.80
2018-05-29T10:38:05.606Z,5.25
2018-05-29T10:40:33.134Z,5.25
2018-05-29T10:43:00.657Z,5.15
2018-05-29T10:45:28.197Z,5.35
2018-05-29T10:47:55.731Z,5.05
2018-05-29T10:50:24.006Z,4.68
2018-05-29T10:52:51.564Z,5.22
2018-05-29T10:55:19.090Z,5.10
2018-05-29T10:57:46.643Z,5.35
2018-05-29T11:00:14.181Z,5.68
2018-05-29T11:02:42.485Z,5.60
2018-05-29T11:05:10.046Z,5.30
2018-05-29T11:07:37.598Z,4.95
2018-05-29T11:10:05.164Z,5.37
2018-05-29T11:12:32.689Z,4.85
2018-05-29T11:15:00.386Z,5.62
2018-05-29T11:17:28.685Z,5.53
2018-05-29T11:19:56.261Z,5.32
2018-05-29T11:22:23.807Z,5.60
2018-05-29T11:24:51.406Z,5.45
2018-05-29T11:27:18.926Z,5.03
2018-05-29T11:29:47.240Z,5.00
2018-05-29T11:32:14.760Z,5.20
2018-05-29T11:34:42.283Z,4.80
2018-05-29T11:37:09.846Z,4.75
2018-05-29T11:39:37.370Z,4.35
2018-05-29T11:42:05.657Z,4.95
2018-05-29T11:44:33.209Z,4.93
2018-05-29T11:47:01.494Z,4.70
2018-05-29T11:49:29.765Z,5.37
2018-05-29T11:51:58.175Z,4.78
2018-05-29T11:54:25.710Z,4.75
2018-05-29T11:56:53.985Z,5.25
2018-05-29T11:59:23.025Z,5.80
2018-05-29T12:01:50.579Z,5.78
2018-05-29T12:04:18.146Z,5.82
2018-05-29T12:06:45.722Z,6.22
2018-05-29T12:09:13.244Z,5.60
2018-05-29T12:11:40.781Z,5.62
2018-05-29T12:14:08.417Z,5.97
2018-05-29T12:16:36.909Z,5.60
2018-05-29T12:19:04.445Z,5.90
2018-05-29T12:21:32.746Z,5.70
2018-05-29T12:24:00.258Z,5.40
2018-05-29T12:26:29.287Z,5.55
2018-05-29T12:28:57.593Z,5.05
2018-05-29T12:31:25.097Z,5.00
2018-05-29T12:33:52.654Z,5.68
2018-05-29T12:36:20.201Z,5.07
2018-05-29T12:38:47.721Z,4.70
2018-05-29T12:41:16.010Z,5.00
2018-05-29T12:43:44.314Z,4.82
2018-05-29T12:46:11.892Z,4.40
2018-05-29T12:48:39.410Z,4.40
2018-05-29T12:51:07.741Z,3.95
2018-05-29T12:53:35.273Z,3.97
2018-05-29T12:56:02.829Z,3.67
2018-05-29T12:58:31.152Z,3.70
2018-05-29T13:00:58.696Z,3.87
2018-05-29T13:03:26.218Z,3.42
2018-05-29T13:05:53.775Z,3.40
2018-05-29T13:08:21.293Z,3.12
2018-05-29T13:10:48.813Z,3.20
2018-05-29T13:13:16.386Z,2.90
2018-05-29T13:15:44.737Z,3.00
2018-05-29T13:18:12.349Z,3.15
2018-05-29T13:20:39.893Z,3.25
2018-05-29T13:23:07.409Z,3.50
2018-05-29T13:25:34.934Z,3.17
2018-05-29T13:28:03.248Z,3.35
2018-05-29T13:30:30.779Z,3.37
2018-05-29T13:32:59.059Z,3.83
2018-05-29T13:35:27.466Z,3.40
2018-05-29T13:37:55.026Z,3.37
2018-05-29T13:40:23.317Z,3.33
2018-05-29T13:42:50.883Z,3.37
2018-05-29T13:45:18.389Z,3.83
2018-05-29T13:47:45.909Z,4.00
2018-05-29T13:50:13.478Z,4.10
2018-05-29T13:52:41.014Z,4.00
2018-05-29T13:55:09.302Z,4.20
2018-05-29T13:57:36.861Z,3.92
2018-05-29T14:00:05.138Z,3.92
2018-05-29T14:02:33.418Z,4.07
2018-05-29T14:05:01.718Z,3.83
2018-05-29T14:07:29.243Z,4.10
2018-05-29T14:09:56.763Z,4.12
2018-05-29T14:12:24.324Z,3.80
2018-05-29T14:14:51.913Z,4.30
2018-05-29T14:17:19.454Z,4.05
2018-05-29T14:19:47.051Z,4.22
2018-05-29T14:22:14.566Z,4.40
2018-05-29T14:24:42.695Z,4.25
2018-05-29T14:27:10.237Z,4.35
2018-05-29T14:29:37.754Z,4.18
2018-05-29T14:32:06.066Z,4.30
2018-05-29T14:34:33.614Z,4.72
2018-05-29T14:37:01.133Z,4.68
2018-05-29T14:39:28.661Z,4.53
2018-05-29T14:41:56.202Z,4.30
2018-05-29T14:44:24.503Z,4.28
2018-05-29T14:46:52.013Z,4.68
2018-05-29T14:49:19.590Z,4.30
2018-05-29T14:51:47.875Z,4.75
2018-05-29T14:54:15.382Z,4.22
2018-05-29T14:56:42.918Z,4.70
2018-05-29T14:59:11.237Z,3.67
2018-05-29T15:01:38.756Z,3.75
2018-05-29T15:04:07.162Z,3.60
2018-05-29T15:06:34.692Z,3.70
2018-05-29T15:09:02.224Z,3.58
2018-05-29T15:11:29.878Z,3.80
2018-05-29T15:13:58.161Z,4.70
2018-05-29T15:16:26.457Z,4.80
2018-05-29T15:18:53.990Z,4.40
2018-05-29T15:21:21.719Z,4.37
2018-05-29T15:23:49.229Z,3.92
2018-05-29T15:29:07.161Z,3.70
2018-05-29T15:31:34.674Z,3.85
2018-05-29T15:34:02.184Z,3.70
2018-05-29T15:36:30.473Z,3.83
2018-05-29T15:38:57.981Z,4.18
2018-05-29T15:41:25.518Z,4.03
2018-05-29T15:43:53.050Z,3.83
2018-05-29T15:46:21.337Z,3.95
2018-05-29T15:48:49.645Z,3.70
2018-05-29T15:51:17.976Z,3.90
2018-05-29T15:53:45.484Z,3.90
2018-05-29T15:56:12.996Z,3.45
2018-05-29T15:58:40.557Z,3.80
2018-05-29T16:01:08.090Z,3.40
2018-05-29T16:03:35.588Z,3.75
2018-05-29T16:06:03.193Z,3.67
2018-05-29T16:08:30.745Z,3.70
2018-05-29T16:10:59.045Z,3.30
2018-05-29T16:13:26.585Z,3.90
2018-05-29T16:15:54.860Z,3.60
2018-05-29T16:18:23.150Z,3.95
2018-05-29T16:20:51.464Z,3.83
2018-05-29T16:23:19.177Z,3.90
2018-05-29T16:25:46.721Z,3.80
2018-05-29T16:28:14.248Z,3.50
2018-05-29T16:30:42.536Z,3.67
2018-05-29T16:33:10.093Z,3.75
2018-05-29T16:35:37.630Z,3.37
2018-05-29T16:38:05.140Z,3.28
2018-05-29T16:40:32.718Z,4.03
2018-05-29T16:43:00.349Z,3.47
2018-05-29T16:45:27.869Z,4.07
2018-05-29T16:47:55.397Z,4.00
2018-05-29T16:50:22.940Z,4.00
2018-05-29T16:52:51.224Z,3.45
2018-05-29T16:55:18.792Z,3.60
2018-05-29T16:57:47.152Z,3.30
2018-05-29T17:00:15.429Z,3.35
2018-05-29T17:02:43.737Z,3.17
2018-05-29T17:05:12.046Z,2.67
2018-05-29T17:07:39.552Z,3.12
2018-05-29T17:10:07.074Z,3.00
2018-05-29T17:12:34.623Z,3.03
2018-05-29T17:15:02.133Z,3.40
2018-05-29T17:17:29.677Z,3.50
2018-05-29T17:19:57.215Z,3.12
2018-05-29T17:22:25.500Z,3.35
2018-05-29T17:24:53.072Z,2.80
2018-05-29T17:27:20.604Z,3.03
2018-05-29T17:29:48.904Z,2.80
2018-05-29T17:32:16.436Z,2.95
2018-05-29T17:34:44.743Z,2.85
2018-05-29T17:37:12.264Z,2.97
2018-05-29T17:39:39.788Z,2.75
2018-05-29T17:42:07.325Z,3.20
2018-05-29T17:44:35.596Z,3.42
2018-05-29T17:47:03.873Z,3.37
2018-05-29T17:49:32.212Z,3.60
2018-05-29T17:51:59.731Z,3.25
2018-05-29T17:54:28.004Z,3.58
2018-05-29T17:56:56.318Z,3.33
2018-05-29T17:59:23.872Z,3.60
2018-05-29T18:01:51.382Z,3.83
2018-05-29T18:04:18.917Z,4.10
2018-05-29T18:06:46.425Z,4.22
2018-05-29T18:09:13.944Z,3.15
2018-05-29T18:11:41.491Z,3.20
2018-05-29T18:14:09.048Z,3.12
2018-05-29T18:16:36.530Z,3.90
2018-05-29T18:19:04.065Z,3.00
2018-05-29T18:21:32.346Z,3.05
2018-05-29T18:24:00.612Z,3.30
2018-05-29T18:26:28.193Z,3.05
2018-05-29T18:28:56.470Z,3.47
2018-05-29T18:31:24.768Z,3.10
2018-05-29T18:33:52.309Z,2.97
2018-05-29T18:36:19.821Z,3.12
2018-05-29T18:38:47.849Z,3.00
2018-05-29T18:41:16.165Z,2.75
2018-05-29T18:43:43.672Z,3.25
2018-05-29T18:46:11.182Z,3.17
2018-05-29T18:48:38.729Z,3.10
2018-05-29T18:51:07.013Z,3.10
2018-05-29T18:53:35.297Z,3.00
2018-05-29T18:56:03.603Z,3.45
2018-05-29T18:58:31.108Z,3.20
2018-05-29T19:00:58.628Z,3.08
2018-05-29T19:03:26.180Z,3.08
2018-05-29T19:05:54.490Z,3.08
2018-05-29T19:08:21.989Z,3.33
2018-05-29T19:10:49.538Z,3.53
2018-05-29T19:13:17.045Z,3.90
2018-05-29T19:15:45.320Z,3.90
2018-05-29T19:18:13.718Z,4.53
2018-05-29T19:20:41.243Z,4.70
2018-05-29T19:23:09.574Z,4.50
2018-05-29T19:25:37.143Z,4.90
2018-05-29T19:28:04.756Z,5.28
2018-05-29T19:30:33.389Z,5.35
2018-05-29T19:33:00.931Z,5.85
2018-05-29T19:35:29.219Z,5.10
2018-05-29T19:37:57.513Z,5.82
2018-05-29T19:40:25.045Z,6.00
2018-05-29T19:42:52.569Z,6.57
2018-05-29T19:45:20.083Z,6.10
2018-05-29T19:47:48.449Z,6.25
2018-05-29T19:50:16.168Z,6.50
2018-05-29T19:52:43.689Z,7.95
2018-05-29T19:55:11.213Z,7.65
2018-05-29T19:57:38.729Z,8.02
2018-05-29T20:00:07.413Z,8.88
2018-05-29T20:02:35.736Z,9.45
2018-05-29T20:05:03.250Z,8.75
2018-05-29T20:07:30.767Z,9.00
2018-05-29T20:09:58.323Z,9.25
2018-05-29T20:12:25.831Z,9.45
2018-05-29T20:14:53.340Z,6.07
2018-05-29T20:17:30.556Z,6.28
2018-05-29T20:19:58.152Z,7.18
2018-05-29T20:22:25.642Z,7.75
2018-05-29T20:24:53.961Z,8.32
2018-05-29T20:27:21.513Z,8.20
2018-05-29T20:29:49.138Z,8.70
2018-05-29T20:32:16.674Z,9.07
2018-05-29T20:34:44.956Z,8.00
2018-05-29T20:37:12.481Z,7.93
2018-05-29T20:39:40.036Z,6.37
2018-05-29T20:42:07.545Z,5.90
2018-05-29T20:44:35.051Z,4.75
2018-05-29T20:47:03.349Z,4.40
2018-05-29T20:49:30.887Z,4.70
2018-05-29T20:51:58.497Z,5.18
2018-05-29T20:54:26.788Z,5.55
2018-05-29T20:56:54.301Z,6.90
2018-05-29T20:59:22.581Z,8.27
2018-05-29T21:01:50.897Z,12.73
2018-05-29T21:04:18.412Z,16.70
2018-05-29T21:06:45.945Z,12.00
2018-05-29T21:09:13.509Z,8.38
2018-05-29T21:11:41.815Z,4.78
2018-05-29T21:14:09.342Z,4.50
2018-05-29T21:16:36.886Z,5.10
2018-05-29T21:19:05.159Z,6.20
2018-05-29T21:21:33.437Z,5.93
2018-05-29T21:24:01.864Z,7.05
2018-05-29T21:26:29.390Z,8.27
2018-05-29T21:28:57.721Z,10.45
2018-05-29T21:31:25.348Z,14.90
2018-05-29T21:33:52.853Z,11.98
2018-05-29T21:36:20.371Z,11.07
2018-05-29T21:38:48.673Z,10.85
2018-05-29T21:41:16.193Z,9.85
2018-05-29T21:43:43.701Z,8.75
2018-05-29T21:46:11.250Z,8.80
2018-05-29T21:48:38.770Z,8.02
2018-05-29T21:51:06.285Z,10.85
2018-05-29T21:53:33.875Z,10.38
2018-05-29T21:56:01.975Z,9.02
2018-05-29T21:58:29.504Z,10.68
2018-05-29T22:00:57.831Z,10.25
2018-05-29T22:03:25.453Z,9.50
2018-05-29T22:05:52.971Z,11.20
2018-05-29T22:08:20.504Z,9.73
2018-05-29T22:10:48.027Z,10.23
2018-05-29T22:13:15.561Z,10.15
2018-05-29T22:15:43.129Z,8.50
2018-05-29T22:18:11.562Z,8.80
2018-05-29T22:20:39.085Z,8.80
2018-05-29T22:23:07.402Z,13.95
2018-05-29T22:25:34.926Z,11.85
2018-05-29T22:28:03.231Z,9.63
2018-05-29T22:30:30.868Z,10.40
2018-05-29T22:32:58.417Z,10.02
2018-05-29T22:35:26.024Z,10.27
2018-05-29T22:37:53.570Z,10.70
2018-05-29T22:40:21.857Z,12.32
2018-05-29T22:42:50.140Z,11.27
2018-05-29T22:45:18.449Z,10.98
2018-05-29T22:47:45.959Z,13.52
2018-05-29T22:50:13.561Z,12.88
2018-05-29T22:52:41.861Z,15.70
2018-05-29T22:55:09.376Z,14.50
2018-05-29T22:57:37.664Z,12.65
2018-05-29T23:00:05.980Z,11.32
2018-05-29T23:02:33.490Z,10.60
2018-05-29T23:05:01.037Z,10.75
2018-05-29T23:07:28.581Z,10.93
2018-05-29T23:09:56.116Z,11.73
2018-05-29T23:12:24.414Z,14.13
2018-05-29T23:14:52.944Z,13.23
2018-05-29T23:17:20.466Z,16.00
2018-05-29T23:19:47.985Z,12.65
2018-05-29T23:22:15.542Z,11.05
2018-05-29T23:24:43.073Z,12.57
2018-05-29T23:27:10.590Z,10.10
2018-05-29T23:29:38.925Z,9.27
2018-05-29T23:32:06.469Z,9.40
2018-05-29T23:34:34.157Z,8.27
2018-05-29T23:37:01.715Z,7.93
2018-05-29T23:39:29.273Z,8.82
2018-05-29T23:41:56.792Z,10.25
2018-05-29T23:44:24.392Z,9.68
2018-05-29T23:46:51.916Z,8.57
2018-05-29T23:49:20.198Z,9.65
2018-05-29T23:51:48.531Z,10.70
2018-05-29T23:54:16.037Z,11.30
2018-05-29T23:56:44.053Z,9.43
2018-05-29T23:59:13.271Z,12.07
